Time;durP1;ratioP1;P1;durP2;ratioP2;P2;SDS_P1;SDS_P2;PMS_P1;PMS_P2;Temp;Humidity;BMP_temperature;BMP_pressure;BME280_temperature;BME280_humidity;BME280_pressure;Samples;Min_cycle;Max_cycle;Signal;HPM_P1;HPM_P2
2022/07/16 00:01:24;;;;;;;8.10;2.83;;;16.90;1.00;;;;;;5041190;28;20064;-77
2022/07/16 00:03:52;;;;;;;11.18;2.92;;;16.90;1.00;;;;;;5030627;28;20030;-77
2022/07/16 00:06:17;;;;;;;7.13;2.83;;;17.00;1.00;;;;;;5041754;28;20065;-77
2022/07/16 00:08:43;;;;;;;5.80;2.25;;;17.10;1.00;;;;;;5035226;28;20018;-77
2022/07/16 00:11:09;;;;;;;5.45;2.92;;;17.10;1.00;;;;;;5033772;28;20022;-77
2022/07/16 00:13:34;;;;;;;4.20;2.63;;;17.10;1.00;;;;;;5041811;28;20018;-76
2022/07/16 00:16:00;;;;;;;7.47;3.17;;;17.10;1.00;;;;;;5040974;28;20026;-77
2022/07/16 00:21:10;;;;;;;3.15;2.65;;;16.80;1.00;;;;;;5029450;28;20048;-78
2022/07/16 00:23:35;;;;;;;3.92;1.90;;;16.60;1.00;;;;;;5039363;28;20074;-76
2022/07/16 00:26:01;;;;;;;3.13;1.38;;;16.30;1.00;;;;;;5050228;28;20021;-77
2022/07/16 00:28:27;;;;;;;3.35;0.88;;;16.20;1.00;;;;;;5037840;28;20021;-77
2022/07/16 00:30:53;;;;;;;2.85;1.05;;;16.00;1.00;;;;;;5048377;28;20037;-77
2022/07/16 00:33:18;;;;;;;2.85;1.20;;;15.90;1.00;;;;;;5043524;28;20284;-76
2022/07/16 00:35:44;;;;;;;2.72;1.10;;;15.70;1.00;;;;;;5032946;28;20072;-78
2022/07/16 00:38:10;;;;;;;2.90;1.08;;;15.60;1.00;;;;;;5035015;28;20049;-77
2022/07/16 00:40:35;;;;;;;5.15;1.00;;;15.60;5.60;;;;;;5048521;28;20042;-77
2022/07/16 00:43:01;;;;;;;3.40;0.98;;;15.60;12.40;;;;;;5043367;28;20022;-77
2022/07/16 00:45:27;;;;;;;6.18;1.20;;;15.90;12.30;;;;;;5040110;28;20104;-77
2022/07/16 00:47:53;;;;;;;3.75;1.10;;;15.90;8.30;;;;;;5035785;28;20075;-77
2022/07/16 00:50:18;;;;;;;3.58;1.02;;;16.00;8.30;;;;;;5037381;28;20081;-77
2022/07/16 00:52:44;;;;;;;2.30;0.60;;;16.00;3.60;;;;;;5040982;28;20028;-77
2022/07/16 00:55:10;;;;;;;26.45;1.40;;;16.00;1.00;;;;;;5023844;28;20373;-76
2022/07/16 00:57:36;;;;;;;2.13;0.75;;;16.20;1.00;;;;;;5038810;28;20034;-76
2022/07/16 01:00:02;;;;;;;2.65;0.60;;;16.00;1.00;;;;;;5031594;28;20024;-77
2022/07/16 01:02:28;;;;;;;1.13;0.55;;;16.00;1.00;;;;;;5034646;28;20050;-77
2022/07/16 01:04:54;;;;;;;2.83;0.65;;;16.00;1.00;;;;;;5037996;28;20347;-77
2022/07/16 01:07:22;;;;;;;4.28;0.50;;;16.10;1.00;;;;;;5033551;28;20122;-77
2022/07/16 01:09:48;;;;;;;3.55;0.68;;;16.10;1.00;;;;;;5030394;28;20022;-77
2022/07/16 01:12:15;;;;;;;3.22;0.85;;;16.10;1.00;;;;;;5038250;28;20028;-77
2022/07/16 01:14:40;;;;;;;2.20;0.80;;;16.10;1.00;;;;;;5040314;28;20430;-77
2022/07/16 01:17:07;;;;;;;2.00;0.70;;;16.00;1.00;;;;;;5039504;28;20050;-76
2022/07/16 01:19:33;;;;;;;2.70;0.90;;;16.00;1.00;;;;;;5023742;28;20416;-77
2022/07/16 01:21:59;;;;;;;3.03;1.05;;;16.00;1.00;;;;;;5036437;28;20052;-77
2022/07/16 01:24:24;;;;;;;1.83;0.80;;;16.00;1.00;;;;;;5034345;28;20063;-78
2022/07/16 01:26:50;;;;;;;3.28;0.93;;;16.00;1.00;;;;;;5031274;28;20018;-77
2022/07/16 01:29:15;;;;;;;3.10;1.00;;;15.90;1.00;;;;;;5037791;28;20061;-77
2022/07/16 01:31:41;;;;;;;0.73;0.55;;;15.90;1.00;;;;;;5039167;28;20076;-76
2022/07/16 01:34:25;;;;;;;4.68;1.13;;;15.90;1.00;;;;;;5041546;28;20022;-76
2022/07/16 01:36:57;;;;;;;4.47;1.20;;;15.90;1.00;;;;;;5040092;28;20056;-77
2022/07/16 01:39:23;;;;;;;2.00;1.05;;;15.90;1.00;;;;;;5018585;28;20421;-78
2022/07/16 01:41:55;;;;;;;1.30;0.80;;;15.90;1.00;;;;;;5033842;28;20062;-77
2022/07/16 01:44:21;;;;;;;2.22;0.90;;;15.90;1.00;;;;;;5040871;28;20022;-77
2022/07/16 01:46:47;;;;;;;5.65;1.67;;;15.90;1.00;;;;;;5039498;28;20087;-77
2022/07/16 01:49:12;;;;;;;2.17;0.70;;;15.90;1.00;;;;;;5031556;28;20022;-77
2022/07/16 01:51:39;;;;;;;1.08;0.55;;;15.90;1.00;;;;;;5027723;28;20081;-77
2022/07/16 01:54:05;;;;;;;5.05;0.90;;;15.90;1.00;;;;;;5026244;28;20029;-77
2022/07/16 01:56:30;;;;;;;2.92;1.27;;;15.80;1.00;;;;;;5038610;28;20025;-77
2022/07/16 01:58:56;;;;;;;1.15;1.05;;;15.80;1.00;;;;;;5039657;28;20047;-77
2022/07/16 02:01:21;;;;;;;2.95;1.15;;;15.80;1.00;;;;;;5030932;28;20025;-77
2022/07/16 02:03:47;;;;;;;2.08;0.65;;;15.80;1.00;;;;;;5033802;28;20048;-76
2022/07/16 02:06:12;;;;;;;2.03;1.00;;;15.80;1.00;;;;;;5027155;28;20044;-78
2022/07/16 02:08:38;;;;;;;2.60;1.00;;;15.70;1.00;;;;;;5031463;28;20107;-77
2022/07/16 02:11:04;;;;;;;3.65;0.98;;;15.70;1.00;;;;;;5028654;28;20022;-77
2022/07/16 02:13:30;;;;;;;1.70;0.75;;;15.60;1.00;;;;;;5036811;28;20021;-77
2022/07/16 02:15:56;;;;;;;6.82;1.50;;;15.60;1.00;;;;;;5036040;28;20026;-77
2022/07/16 02:18:21;;;;;;;3.53;1.33;;;15.60;1.00;;;;;;5028009;28;20026;-78
2022/07/16 02:20:47;;;;;;;3.70;1.15;;;15.60;1.00;;;;;;5029414;28;20033;-77
2022/07/16 02:23:12;;;;;;;4.20;1.30;;;15.50;1.00;;;;;;5035447;28;20477;-78
2022/07/16 02:25:39;;;;;;;4.03;1.08;;;15.50;1.00;;;;;;5016744;28;20029;-77
2022/07/16 02:28:08;;;;;;;2.55;1.00;;;15.50;1.00;;;;;;5026166;28;20432;-77
2022/07/16 02:30:35;;;;;;;2.75;1.10;;;15.50;1.00;;;;;;5041311;28;20528;-77
2022/07/16 02:33:01;;;;;;;5.43;1.45;;;15.40;1.00;;;;;;5045011;28;20040;-77
2022/07/16 02:35:26;;;;;;;3.13;1.02;;;15.40;1.00;;;;;;5030211;28;20030;-77
2022/07/16 02:37:52;;;;;;;2.85;1.38;;;15.40;1.00;;;;;;5034605;28;20100;-77
2022/07/16 02:40:18;;;;;;;2.17;0.95;;;15.30;1.00;;;;;;5036672;28;20022;-77
2022/07/16 02:42:43;;;;;;;3.28;1.00;;;15.20;1.00;;;;;;5023186;28;20374;-76
2022/07/16 02:45:11;;;;;;;2.88;1.13;;;15.00;1.00;;;;;;5035892;28;20052;-76
2022/07/16 02:47:36;;;;;;;4.18;1.38;;;14.90;1.00;;;;;;5031188;28;20461;-77
2022/07/16 02:50:03;;;;;;;3.75;1.20;;;14.80;1.00;;;;;;5033540;28;20022;-77
2022/07/16 02:52:28;;;;;;;2.97;1.00;;;14.60;1.00;;;;;;5035777;28;20100;-78
2022/07/16 02:54:54;;;;;;;5.47;1.50;;;14.40;1.00;;;;;;5029002;28;20061;-78
2022/07/16 02:57:19;;;;;;;4.95;1.20;;;14.20;1.00;;;;;;5028510;28;20034;-77
2022/07/16 02:59:45;;;;;;;6.45;1.50;;;14.10;1.00;;;;;;5035533;28;20037;-77
2022/07/16 03:02:11;;;;;;;1.40;1.17;;;14.00;1.00;;;;;;5033682;28;20022;-77
2022/07/16 03:04:37;;;;;;;3.97;1.38;;;14.00;1.00;;;;;;5028073;28;20013;-77
2022/07/16 03:07:03;;;;;;;4.07;1.60;;;14.00;1.00;;;;;;5030958;28;20036;-77
2022/07/16 03:09:29;;;;;;;2.80;1.30;;;14.10;1.00;;;;;;5022391;28;20037;-77
2022/07/16 03:11:54;;;;;;;6.82;1.20;;;14.00;1.00;;;;;;5034590;28;20022;-77
2022/07/16 03:14:20;;;;;;;2.65;1.10;;;13.90;1.00;;;;;;5040363;28;20025;-77
2022/07/16 03:16:46;;;;;;;2.63;1.20;;;13.90;1.00;;;;;;5026605;28;20022;-77
2022/07/16 03:19:11;;;;;;;5.10;1.38;;;13.80;12.30;;;;;;5036830;28;20540;-78
2022/07/16 03:21:37;;;;;;;6.38;1.15;;;13.80;19.50;;;;;;5027711;28;20049;-78
2022/07/16 03:24:03;;;;;;;3.92;1.05;;;13.70;23.40;;;;;;5033939;28;20041;-77
2022/07/16 03:26:28;;;;;;;5.93;1.33;;;13.70;26.20;;;;;;5040219;28;20025;-77
2022/07/16 03:28:54;;;;;;;4.28;1.17;;;13.70;25.70;;;;;;5026249;28;20026;-77
2022/07/16 03:31:19;;;;;;;3.47;1.10;;;13.70;21.30;;;;;;5024922;28;20026;-77
2022/07/16 03:33:45;;;;;;;3.05;1.00;;;13.60;20.90;;;;;;5028174;28;20060;-77
2022/07/16 03:36:11;;;;;;;4.22;1.10;;;13.60;17.90;;;;;;5036449;28;20029;-78
2022/07/16 03:41:21;;;;;;;4.68;0.95;;;13.50;3.60;;;;;;5028340;28;20128;-78
2022/07/16 03:43:46;;;;;;;3.25;0.68;;;13.40;1.00;;;;;;5026693;28;20089;-77
2022/07/16 03:46:13;;;;;;;6.72;1.42;;;13.40;1.00;;;;;;5039988;28;20045;-77
2022/07/16 03:48:39;;;;;;;4.53;0.90;;;13.40;1.00;;;;;;5039087;28;20021;-77
2022/07/16 03:51:07;;;;;;;4.00;0.95;;;13.40;1.00;;;;;;5030997;28;20055;-78
2022/07/16 03:53:34;;;;;;;3.08;0.85;;;13.40;1.00;;;;;;5032717;28;20037;-77
2022/07/16 03:55:59;;;;;;;5.03;1.08;;;13.40;1.00;;;;;;5039390;28;20041;-77
2022/07/16 03:58:28;;;;;;;6.18;0.75;;;13.50;1.00;;;;;;5034718;28;20048;-78
2022/07/16 04:00:54;;;;;;;4.20;1.17;;;13.60;1.00;;;;;;5045358;28;20026;-77
2022/07/16 04:03:19;;;;;;;4.95;1.00;;;13.70;1.00;;;;;;5039076;28;20022;-78
2022/07/16 04:05:47;;;;;;;4.32;0.60;;;13.70;1.00;;;;;;5039437;28;20022;-77
2022/07/16 04:08:12;;;;;;;1.73;0.68;;;13.80;1.00;;;;;;5031242;28;20552;-78
2022/07/16 04:10:38;;;;;;;3.63;0.60;;;14.00;1.00;;;;;;5034115;28;20025;-77
2022/07/16 04:13:04;;;;;;;2.25;0.80;;;14.90;1.00;;;;;;5039668;28;20105;-77
2022/07/16 04:15:29;;;;;;;3.58;1.00;;;15.90;1.00;;;;;;5035775;28;20033;-78
2022/07/16 04:17:55;;;;;;;4.85;1.10;;;16.30;99.90;;;;;;5031264;28;20048;-79
2022/07/16 04:20:24;;;;;;;3.40;0.77;;;17.20;99.90;;;;;;5034157;28;20030;-79
2022/07/16 04:22:50;;;;;;;4.18;0.70;;;17.60;99.90;;;;;;5034557;28;20026;-78
2022/07/16 04:25:15;;;;;;;5.28;1.27;;;17.60;99.90;;;;;;5039554;28;20033;-78
2022/07/16 04:27:43;;;;;;;4.63;0.82;;;17.00;99.90;;;;;;5027590;28;20037;-78
2022/07/16 04:30:10;;;;;;;5.57;0.80;;;18.00;99.90;;;;;;5024800;28;20199;-78
2022/07/16 04:32:37;;;;;;;2.08;0.65;;;18.90;99.90;;;;;;5039734;28;20034;-78
2022/07/16 04:35:03;;;;;;;2.45;1.08;;;19.30;99.90;;;;;;5037223;28;20424;-78
2022/07/16 04:37:28;;;;;;;2.63;0.50;;;20.00;99.90;;;;;;5029888;28;20121;-78
2022/07/16 04:39:54;;;;;;;4.60;0.60;;;20.40;99.90;;;;;;5034370;28;20057;-78
2022/07/16 04:42:20;;;;;;;6.70;0.73;;;19.70;99.90;;;;;;5028088;28;20053;-78
2022/07/16 04:44:45;;;;;;;5.18;1.23;;;20.70;99.90;;;;;;5038065;28;20049;-78
2022/07/16 04:47:11;;;;;;;1.65;0.65;;;21.20;99.90;;;;;;5041233;28;20057;-78
2022/07/16 04:49:36;;;;;;;2.58;0.70;;;22.40;99.90;;;;;;5027814;28;20145;-78
2022/07/16 04:52:02;;;;;;;3.90;0.60;;;23.20;99.90;;;;;;5040660;28;20068;-79
2022/07/16 04:54:28;;;;;;;1.98;0.40;;;23.20;99.90;;;;;;5032026;28;20049;-78
2022/07/16 04:56:54;;;;;;;3.95;0.73;;;23.60;99.90;;;;;;5037634;28;20034;-78
2022/07/16 04:59:19;;;;;;;2.22;0.70;;;23.60;99.90;;;;;;5028007;28;20305;-78
2022/07/16 05:01:45;;;;;;;2.60;0.65;;;24.00;99.90;;;;;;5036906;28;20025;-78
2022/07/16 05:04:11;;;;;;;4.45;1.02;;;24.10;99.90;;;;;;5035065;28;20029;-78
2022/07/16 05:06:36;;;;;;;2.75;0.50;;;25.00;99.90;;;;;;5041884;28;20052;-77
2022/07/16 05:09:02;;;;;;;6.00;0.82;;;24.90;99.90;;;;;;5039051;28;20026;-78
2022/07/16 05:11:29;;;;;;;2.35;0.60;;;22.50;99.90;;;;;;5032438;28;20026;-79
2022/07/16 05:13:54;;;;;;;2.47;0.70;;;20.70;99.90;;;;;;5036452;28;20077;-78
2022/07/16 05:16:20;;;;;;;4.75;0.70;;;19.60;99.90;;;;;;5041367;28;20036;-78
2022/07/16 05:18:46;;;;;;;3.70;1.05;;;19.10;99.90;;;;;;5027072;28;20050;-78
2022/07/16 05:21:12;;;;;;;3.90;1.00;;;18.90;99.90;;;;;;5038605;28;20029;-79
2022/07/16 05:23:38;;;;;;;3.17;0.70;;;18.60;99.90;;;;;;5031063;28;20037;-78
2022/07/16 05:26:03;;;;;;;1.00;0.47;;;18.30;99.90;;;;;;5034795;28;20033;-78
2022/07/16 05:28:29;;;;;;;4.95;0.55;;;18.10;99.90;;;;;;5030870;28;20041;-78
2022/07/16 05:30:54;;;;;;;3.67;0.77;;;17.90;99.90;;;;;;5032438;28;20032;-78
2022/07/16 05:33:20;;;;;;;4.40;0.70;;;17.80;99.90;;;;;;5032654;28;20061;-78
2022/07/16 05:35:46;;;;;;;3.03;0.68;;;20.80;99.90;;;;;;5024838;28;20041;-78
2022/07/16 05:38:12;;;;;;;4.75;0.65;;;24.80;99.90;;;;;;5042061;28;20053;-77
2022/07/16 05:40:38;;;;;;;3.05;0.50;;;25.70;99.90;;;;;;5029897;28;20111;-78
2022/07/16 05:43:04;;;;;;;2.50;0.70;;;26.70;99.90;;;;;;5042649;28;20424;-77
2022/07/16 05:45:30;;;;;;;1.15;0.57;;;24.90;99.90;;;;;;5037023;28;20100;-78
2022/07/16 05:47:56;;;;;;;2.88;0.77;;;22.60;99.90;;;;;;5045261;28;20045;-78
2022/07/16 05:50:21;;;;;;;2.80;0.63;;;22.50;99.90;;;;;;5046369;28;20026;-79
2022/07/16 05:52:47;;;;;;;2.08;0.60;;;22.00;99.90;;;;;;5042872;28;20033;-77
2022/07/16 05:55:12;;;;;;;2.55;0.40;;;20.90;99.90;;;;;;5041266;28;20033;-78
2022/07/16 05:57:38;;;;;;;2.53;0.40;;;20.80;99.90;;;;;;5042988;28;20074;-77
2022/07/16 06:00:08;;;;;;;2.80;0.50;;;23.30;99.90;;;;;;5037483;28;20029;-78
2022/07/16 06:02:34;;;;;;;3.25;0.47;;;26.80;99.90;;;;;;5042006;28;20014;-77
2022/07/16 06:04:59;;;;;;;2.28;0.50;;;29.20;99.90;;;;;;5045687;28;20025;-78
2022/07/16 06:07:25;;;;;;;3.10;0.40;;;24.80;99.90;;;;;;5037028;28;20074;-78
2022/07/16 06:09:51;;;;;;;1.10;0.40;;;23.20;99.90;;;;;;5040311;28;20068;-78
2022/07/16 06:12:16;;;;;;;1.30;0.47;;;22.00;99.90;;;;;;5037215;28;20025;-77
2022/07/16 06:14:42;;;;;;;0.73;0.30;;;21.00;99.90;;;;;;5043417;28;20018;-78
2022/07/16 06:17:07;;;;;;;3.13;0.52;;;20.00;99.90;;;;;;5048932;28;20029;-77
2022/07/16 06:19:33;;;;;;;2.38;0.68;;;19.50;99.90;;;;;;5028324;28;20105;-78
2022/07/16 06:21:58;;;;;;;4.15;0.85;;;18.90;99.90;;;;;;5024994;28;20053;-77
2022/07/16 06:24:24;;;;;;;1.85;0.60;;;18.50;99.90;;;;;;5026034;28;20074;-78
2022/07/16 06:26:49;;;;;;;3.97;0.60;;;18.40;99.90;;;;;;5023335;28;20025;-78
2022/07/16 06:29:16;;;;;;;3.88;0.63;;;18.70;99.90;;;;;;5027102;28;20394;-77
2022/07/16 06:31:43;;;;;;;2.92;0.60;;;20.00;99.90;;;;;;5042482;28;20017;-77
2022/07/16 06:34:08;;;;;;;3.05;0.57;;;19.30;99.90;;;;;;5036042;28;20047;-77
2022/07/16 06:36:34;;;;;;;1.48;0.47;;;19.20;99.90;;;;;;5045062;28;20030;-77
2022/07/16 06:39:00;;;;;;;0.45;0.22;;;19.70;99.90;;;;;;5043773;28;20026;-77
2022/07/16 06:41:25;;;;;;;1.33;0.22;;;20.20;99.90;;;;;;5037206;28;20049;-77
2022/07/16 06:43:51;;;;;;;2.30;0.30;;;20.40;99.90;;;;;;5036958;28;20026;-77
2022/07/16 06:46:17;;;;;;;0.10;0.10;;;21.60;99.90;;;;;;5047974;28;20072;-77
2022/07/16 06:48:42;;;;;;;2.03;0.52;;;23.90;99.90;;;;;;5036184;28;20029;-77
2022/07/16 06:51:08;;;;;;;1.55;0.40;;;26.40;99.90;;;;;;5037514;28;20077;-78
2022/07/16 06:53:38;;;;;;;1.02;0.25;;;23.90;99.90;;;;;;5043651;28;20044;-78
2022/07/16 06:56:03;;;;;;;;;;;25.00;99.90;;;;;;5034168;28;20109;-77
2022/07/16 06:58:29;;;;;;;2.20;1.95;;;28.00;99.90;;;;;;5044242;28;19913;-76
2022/07/16 07:00:57;;;;;;;2.38;0.68;;;28.90;99.90;;;;;;5033905;28;20049;-77
2022/07/16 07:03:22;;;;;;;1.40;0.60;;;29.00;99.90;;;;;;5046445;28;20028;-78
2022/07/16 07:05:48;;;;;;;0.60;0.30;;;30.70;99.90;;;;;;5041725;28;20021;-77
2022/07/16 07:08:14;;;;;;;1.02;0.20;;;30.50;99.90;;;;;;5041405;28;20098;-78
2022/07/16 07:10:39;;;;;;;1.00;0.60;;;30.60;99.90;;;;;;5037397;28;20026;-78
2022/07/16 07:13:05;;;;;;;1.63;0.60;;;31.40;99.90;;;;;;5043005;28;20077;-77
2022/07/16 07:15:30;;;;;;;0.63;0.20;;;32.60;99.90;;;;;;5047082;28;20022;-78
2022/07/16 07:17:56;;;;;;;1.38;0.30;;;32.50;99.90;;;;;;5043403;28;20036;-78
2022/07/16 07:20:22;;;;;;;0.85;0.20;;;33.70;99.90;;;;;;5036021;28;20548;-79
2022/07/16 07:22:47;;;;;;;2.83;0.47;;;29.60;99.90;;;;;;5043864;28;20029;-78
2022/07/16 07:25:13;;;;;;;1.98;0.50;;;26.60;99.90;;;;;;5043061;28;20029;-78
2022/07/16 07:27:39;;;;;;;0.10;0.10;;;24.30;99.90;;;;;;5044460;28;20021;-77
2022/07/16 07:30:05;;;;;;;2.67;0.30;;;22.90;99.90;;;;;;5034272;28;20049;-78
2022/07/16 07:32:30;;;;;;;2.10;0.50;;;22.20;99.90;;;;;;5030908;28;20018;-77
2022/07/16 07:34:56;;;;;;;9.18;0.65;;;21.90;99.90;;;;;;5020502;28;20488;-78
2022/07/16 07:37:22;;;;;;;3.63;0.47;;;21.50;99.90;;;;;;5032679;28;20026;-78
2022/07/16 07:39:47;;;;;;;2.92;0.52;;;23.00;99.90;;;;;;5044857;28;20060;-78
2022/07/16 07:42:13;;;;;;;1.77;0.50;;;29.30;99.90;;;;;;5042907;28;20049;-77
2022/07/16 07:44:39;;;;;;;2.65;0.52;;;30.50;99.90;;;;;;5031530;28;20032;-78
2022/07/16 07:47:04;;;;;;;1.90;0.60;;;27.20;99.90;;;;;;5042361;28;20571;-78
2022/07/16 07:49:30;;;;;;;1.30;0.32;;;25.50;99.90;;;;;;5050162;28;20025;-78
2022/07/16 07:51:56;;;;;;;1.15;0.40;;;23.90;99.90;;;;;;5028252;28;20026;-79
2022/07/16 07:54:21;;;;;;;1.58;0.60;;;24.30;99.90;;;;;;5043692;28;20017;-78
2022/07/16 07:56:48;;;;;;;0.57;0.35;;;29.30;99.90;;;;;;5046647;28;20033;-78
2022/07/16 07:59:14;;;;;;;0.80;0.35;;;31.30;99.90;;;;;;5041812;28;20042;-78
2022/07/16 08:01:39;;;;;;;2.92;0.45;;;32.10;99.90;;;;;;5047339;28;20036;-78
2022/07/16 08:04:05;;;;;;;2.47;0.30;;;34.10;99.90;;;;;;5050069;28;20037;-78
2022/07/16 08:06:31;;;;;;;2.28;0.43;;;34.70;99.90;;;;;;5044130;28;20041;-77
2022/07/16 08:08:56;;;;;;;1.83;0.52;;;32.80;99.90;;;;;;5041626;28;20069;-78
2022/07/16 08:11:22;;;;;;;1.45;0.40;;;33.00;99.90;;;;;;5041499;28;20033;-78
2022/07/16 08:13:48;;;;;;;1.17;0.50;;;33.40;99.90;;;;;;5044225;28;20025;-76
2022/07/16 08:16:13;;;;;;;0.45;0.20;;;33.80;99.90;;;;;;5043714;28;20403;-77
2022/07/16 08:18:39;;;;;;;0.98;0.30;;;33.80;99.90;;;;;;5047673;28;20034;-78
2022/07/16 08:21:04;;;;;;;0.45;0.20;;;34.80;99.90;;;;;;5049033;28;20078;-77
2022/07/16 08:26:14;;;;;;;2.65;0.57;;;33.60;99.90;;;;;;5046835;28;20041;-77
2022/07/16 08:28:42;;;;;;;3.85;0.50;;;31.40;99.90;;;;;;5040227;28;20034;-76
2022/07/16 08:31:08;;;;;;;2.50;0.30;;;31.10;99.90;;;;;;5036813;28;20018;-77
2022/07/16 08:33:33;;;;;;;3.00;0.32;;;33.10;99.90;;;;;;5050536;28;20021;-76
2022/07/16 08:36:01;;;;;;;1.42;0.45;;;33.60;99.90;;;;;;5037384;28;20053;-76
2022/07/16 08:38:27;;;;;;;2.75;0.52;;;34.40;99.90;;;;;;5049745;28;20013;-77
2022/07/16 08:40:55;;;;;;;1.73;0.40;;;35.50;99.90;;;;;;5042302;28;20097;-77
2022/07/16 08:43:21;;;;;;;0.93;0.28;;;35.10;99.90;;;;;;5045884;28;20045;-77
2022/07/16 08:45:49;;;;;;;2.13;0.85;;;34.60;99.90;;;;;;5051789;28;20034;-77
2022/07/16 08:48:16;;;;;;;2.65;0.65;;;30.70;99.90;;;;;;5046620;28;20024;-76
2022/07/16 08:50:42;;;;;;;2.63;0.40;;;31.90;99.90;;;;;;5058093;28;20026;-77
2022/07/16 08:53:08;;;;;;;3.08;0.45;;;28.40;99.90;;;;;;5049241;28;20030;-76
2022/07/16 08:55:37;;;;;;;2.67;0.45;;;27.00;99.90;;;;;;5049864;28;20029;-77
2022/07/16 08:58:08;;;;;;;2.05;0.60;;;25.60;99.90;;;;;;5042342;28;20060;-77
2022/07/16 09:00:34;;;;;;;2.78;0.52;;;24.60;99.90;;;;;;5043074;28;20041;-77
2022/07/16 09:03:00;;;;;;;1.40;0.60;;;24.20;99.90;;;;;;5049987;28;20029;-77
2022/07/16 09:05:26;;;;;;;1.88;0.50;;;23.20;99.90;;;;;;5035262;28;20006;-78
2022/07/16 09:07:53;;;;;;;2.60;0.30;;;23.70;99.90;;;;;;5034307;28;20077;-77
2022/07/16 09:10:19;;;;;;;1.25;0.43;;;28.10;99.90;;;;;;5033778;28;20030;-77
2022/07/16 09:12:47;;;;;;;2.40;0.43;;;25.90;99.90;;;;;;5045526;28;20038;-77
2022/07/16 09:15:28;;;;;;;3.30;0.70;;;25.20;99.90;;;;;;5032163;28;20025;-77
2022/07/16 09:18:09;;;;;;;3.03;0.52;;;24.70;99.90;;;;;;5032882;28;20029;-78
2022/07/16 09:20:35;;;;;;;2.13;0.30;;;24.00;99.90;;;;;;5030807;28;20030;-77
2022/07/16 09:23:02;;;;;;;2.38;0.43;;;23.50;99.90;;;;;;5036121;28;20026;-77
2022/07/16 09:25:28;;;;;;;1.48;0.20;;;25.90;99.90;;;;;;5032875;28;20024;-77
2022/07/16 09:28:00;;;;;;;3.85;0.57;;;25.70;99.90;;;;;;5032290;28;20038;-77
2022/07/16 09:30:27;;;;;;;1.75;0.43;;;25.50;99.90;;;;;;5033669;28;20030;-79
2022/07/16 09:32:53;;;;;;;0.55;0.43;;;26.30;99.90;;;;;;5031535;28;20006;-78
2022/07/16 09:35:20;;;;;;;2.60;0.38;;;28.60;99.90;;;;;;5049201;28;20036;-77
2022/07/16 09:37:47;;;;;;;2.58;0.47;;;25.20;99.90;;;;;;5041094;28;20502;-77
2022/07/16 09:40:13;;;;;;;1.90;0.40;;;23.80;99.90;;;;;;5025642;28;20029;-78
2022/07/16 09:42:40;;;;;;;4.15;0.50;;;22.70;99.90;;;;;;5036134;28;20038;-77
2022/07/16 09:45:07;;;;;;;2.70;0.60;;;27.70;99.90;;;;;;5043958;28;20025;-77
2022/07/16 09:47:34;;;;;;;0.38;0.20;;;30.50;99.90;;;;;;5042966;28;20022;-78
2022/07/16 09:50:01;;;;;;;3.47;0.88;;;28.80;99.90;;;;;;5036588;28;20028;-77
2022/07/16 09:52:32;;;;;;;3.88;1.10;;;24.70;99.90;;;;;;5044453;28;20014;-77
2022/07/16 09:54:59;;;;;;;1.23;0.43;;;23.30;99.90;;;;;;5042415;28;20017;-77
2022/07/16 09:57:27;;;;;;;4.28;0.60;;;27.50;99.90;;;;;;5041650;28;20036;-77
2022/07/16 09:59:54;;;;;;;1.30;0.35;;;31.00;99.90;;;;;;5039588;28;20038;-78
2022/07/16 10:02:19;;;;;;;1.50;0.45;;;27.00;99.90;;;;;;5043965;28;20053;-77
2022/07/16 10:04:45;;;;;;;3.42;0.50;;;25.30;99.90;;;;;;5041339;28;20613;-77
2022/07/16 10:07:11;;;;;;;1.83;0.32;;;23.90;99.90;;;;;;5041489;28;20049;-78
2022/07/16 10:09:37;;;;;;;4.15;0.55;;;28.40;99.90;;;;;;5045684;28;20021;-77
2022/07/16 10:12:09;;;;;;;1.65;0.60;;;31.10;99.90;;;;;;5036412;28;20461;-77
2022/07/16 10:14:37;;;;;;;3.80;0.70;;;30.30;99.90;;;;;;5041416;28;20026;-78
2022/07/16 10:17:21;;;;;;;3.20;0.55;;;33.10;99.90;;;;;;5035907;28;20021;-77
2022/07/16 10:20:09;;;;;;;1.20;0.20;;;34.20;99.90;;;;;;5033848;28;20021;-77
2022/07/16 10:22:40;;;;;;;2.85;0.40;;;30.00;99.90;;;;;;5048400;28;20032;-78
2022/07/16 10:25:22;;;;;;;4.05;0.57;;;26.60;99.90;;;;;;5018111;28;20036;-77
2022/07/16 10:27:48;;;;;;;1.48;0.65;;;30.80;99.90;;;;;;5037062;28;20029;-78
2022/07/16 10:30:26;;;;;;;4.05;0.40;;;32.30;99.90;;;;;;5025040;28;20026;-77
2022/07/16 10:33:02;;;;;;;1.83;0.60;;;32.30;99.90;;;;;;5034355;28;20028;-77
2022/07/16 10:35:37;;;;;;;2.35;0.88;;;29.10;99.90;;;;;;5039139;28;20013;-77
2022/07/16 10:38:08;;;;;;;2.67;0.63;;;27.40;99.90;;;;;;5041219;28;20488;-77
2022/07/16 10:40:38;;;;;;;0.55;0.35;;;26.80;99.90;;;;;;5029936;28;20068;-78
2022/07/16 10:43:18;;;;;;;4.45;0.60;;;30.30;99.90;;;;;;5036736;28;20037;-78
2022/07/16 10:45:56;;;;;;;1.55;0.47;;;32.10;99.90;;;;;;5040346;28;20049;-77
2022/07/16 10:48:30;;;;;;;3.75;0.60;;;28.30;99.90;;;;;;5041323;28;20017;-77
2022/07/16 10:51:52;;;;;;;3.65;0.55;;;29.60;99.90;;;;;;5041119;28;20436;-76
2022/07/16 10:54:18;;;;;;;4.28;0.65;;;25.40;99.90;;;;;;4998097;28;20011;-77
2022/07/16 10:56:48;;;;;;;2.40;0.73;;;24.40;99.90;;;;;;5003211;28;20125;-77
2022/07/16 10:59:19;;;;;;;2.92;0.60;;;25.10;99.90;;;;;;5026105;28;20046;-76
2022/07/16 11:01:46;;;;;;;3.17;0.98;;;26.60;99.90;;;;;;5044465;28;20045;-76
2022/07/16 11:04:14;;;;;;;3.13;0.47;;;26.60;99.90;;;;;;5037811;28;20053;-76
2022/07/16 11:06:41;;;;;;;3.67;0.60;;;25.50;99.90;;;;;;5034577;28;20022;-76
2022/07/16 11:09:08;;;;;;;3.22;0.70;;;25.20;99.90;;;;;;5032600;28;20030;-77
2022/07/16 11:11:42;;;;;;;3.22;0.77;;;27.40;99.90;;;;;;5043863;28;20022;-76
2022/07/16 11:14:09;;;;;;;0.75;0.70;;;25.50;99.90;;;;;;5044506;28;20028;-76
2022/07/16 11:16:35;;;;;;;1.38;0.50;;;26.90;99.90;;;;;;5030721;28;20030;-76
2022/07/16 11:19:04;;;;;;;4.00;0.75;;;24.60;99.90;;;;;;5027302;28;20030;-77
2022/07/16 11:21:31;;;;;;;2.27;0.70;;;26.10;99.90;;;;;;5040750;28;20033;-77
2022/07/16 11:24:01;;;;;;;3.58;0.70;;;24.60;99.90;;;;;;5034741;28;20029;-76
2022/07/16 11:26:28;;;;;;;1.55;0.47;;;23.90;99.90;;;;;;5033911;28;20021;-77
2022/07/16 11:28:56;;;;;;;5.07;0.90;;;23.50;99.90;;;;;;5024989;28;20049;-75
2022/07/16 11:31:27;;;;;;;3.80;0.60;;;23.20;99.90;;;;;;5027722;28;20382;-75
2022/07/16 11:34:11;;;;;;;3.42;0.95;;;24.00;99.90;;;;;;5021830;28;20436;-78
2022/07/16 11:36:40;;;;;;;1.00;0.60;;;24.60;99.90;;;;;;5027212;28;20034;-78
2022/07/16 11:39:05;;;;;;;2.60;0.68;;;24.40;99.90;;;;;;5034785;28;20026;-76
2022/07/16 11:41:32;;;;;;;3.30;0.50;;;23.60;99.90;;;;;;5030762;28;20105;-76
2022/07/16 11:43:59;;;;;;;2.97;0.88;;;23.90;99.90;;;;;;5027359;28;20026;-76
2022/07/16 11:46:28;;;;;;;3.03;0.60;;;23.90;99.90;;;;;;5040601;28;20013;-75
2022/07/16 11:48:54;;;;;;;2.13;0.47;;;22.60;99.90;;;;;;5050873;28;20036;-75
2022/07/16 11:51:20;;;;;;;5.18;0.70;;;22.70;99.90;;;;;;5047378;28;20061;-76
2022/07/16 11:53:53;;;;;;;2.85;0.60;;;23.10;99.90;;;;;;5040986;28;20056;-76
2022/07/16 11:56:32;;;;;;;0.95;0.50;;;23.60;99.90;;;;;;5032874;28;20037;-76
2022/07/16 11:59:00;;;;;;;5.97;0.45;;;23.70;99.90;;;;;;5046589;28;20036;-76
2022/07/16 12:01:30;;;;;;;2.90;0.60;;;23.50;99.90;;;;;;5036695;28;20017;-76
2022/07/16 12:03:56;;;;;;;1.83;0.50;;;23.30;99.90;;;;;;5038268;28;20109;-75
2022/07/16 12:06:22;;;;;;;2.10;0.50;;;23.50;99.90;;;;;;5036699;28;20030;-76
2022/07/16 12:08:54;;;;;;;2.50;0.50;;;23.60;99.90;;;;;;5039180;28;20030;-76
2022/07/16 12:11:27;;;;;;;1.48;0.70;;;23.70;99.90;;;;;;5032690;28;20038;-76
2022/07/16 12:13:54;;;;;;;1.73;0.38;;;22.70;99.90;;;;;;5040746;28;20095;-76
2022/07/16 12:16:21;;;;;;;2.30;0.28;;;23.20;99.90;;;;;;5040065;28;20022;-76
2022/07/16 12:19:02;;;;;;;0.60;0.30;;;22.30;99.90;;;;;;5043602;28;20064;-76
2022/07/16 12:21:34;;;;;;;0.70;0.45;;;21.90;99.90;;;;;;5034908;28;20026;-76
2022/07/16 12:24:01;;;;;;;2.83;0.50;;;21.20;99.90;;;;;;5048279;28;20021;-76
2022/07/16 12:26:32;;;;;;;1.65;0.25;;;21.80;99.90;;;;;;5042685;28;20469;-75
2022/07/16 12:28:59;;;;;;;2.60;0.40;;;21.30;99.90;;;;;;5038830;28;20036;-75
2022/07/16 12:31:29;;;;;;;2.15;0.57;;;21.60;99.90;;;;;;5047587;28;20084;-75
2022/07/16 12:33:56;;;;;;;3.00;0.57;;;21.80;99.90;;;;;;5039679;28;20022;-74
2022/07/16 12:36:31;;;;;;;3.13;0.95;;;21.30;99.90;;;;;;5032839;28;20042;-75
2022/07/16 12:38:59;;;;;;;3.75;0.57;;;21.50;99.90;;;;;;5043400;28;20025;-75
2022/07/16 12:41:43;;;;;;;2.95;0.55;;;21.70;99.90;;;;;;5032577;28;20042;-76
2022/07/16 12:44:17;;;;;;;1.58;0.60;;;21.60;99.90;;;;;;5039387;28;20026;-75
2022/07/16 12:46:46;;;;;;;0.85;0.32;;;21.20;99.90;;;;;;5042286;28;20021;-74
2022/07/16 12:49:13;;;;;;;1.48;0.50;;;21.50;99.90;;;;;;5045529;28;20039;-74
2022/07/16 12:51:45;;;;;;;2.38;0.40;;;21.50;99.90;;;;;;5042867;28;20022;-74
2022/07/16 12:54:14;;;;;;;6.80;0.63;;;21.00;99.90;;;;;;5028590;28;20080;-74
2022/07/16 12:59:26;;;;;;;1.10;0.50;;;22.90;99.90;;;;;;5036727;28;20086;-75
2022/07/16 13:01:52;;;;;;;2.15;0.30;;;23.10;99.90;;;;;;5038300;28;20105;-74